Eastern Asia — 3FQP2 — position and weather

sailwx.info

Track history (hours):
 
Tides and Currents Weather Stations Pressure Air Temp Water Temp Dewpoint Dewpoint Depression Visibility Wind Speed Wind Dir Waves Ship Positions

Eastern Asia

Last reported at 2017-Jul-23 12:31 UTC. Time now 2017-Jul-23 12:42 UTC.
Position N 46°12' W 123°55'.

Length 175 m; draft 6.7 m.

Type: Cargo ship. MMSI: 355530000.

Date/timePositionNaut miles runAvg speedWind from/ knotsBaromVisibWave heightAir tempDewpointWater temp
2017-Jul-23 12:31N 46°12' W 123°55'4 8.2
2017-Jul-23 12:01N 46°15' W 123°60'4 7.4
2017-Jul-23 11:30N 46°15' W 124°05'510.3
2017-Jul-23 11:01N 46°13' W 124°12'4 7.6
2017-Jul-23 10:31N 46°12' W 124°17'1 1.6
2017-Jul-23 10:01N 46°12' W 124°18'1 2.7
2017-Jul-23 09:31N 46°12' W 124°20'4 7.3
2017-Jul-23 09:01N 46°12' W 124°25'511.0
2017-Jul-23 08:31N 46°12' W 124°33'611.8
2017-Jul-23 08:01N 46°12' W 124°42'612.1
2017-Jul-23 07:31N 46°12' W 124°50'612.2
2017-Jul-23 07:00N 46°12' W 124°59'612.7
2017-Jul-23 06:30N 46°12' W 125°08'612.5
2017-Jul-23 06:01N 46°12' W 125°17'612.5
2017-Jul-23 05:31N 46°12' W 125°26'612.6
2017-Jul-23 05:01N 46°12' W 125°36'612.6
2017-Jul-23 04:30N 46°12' W 125°45'812.5
2017-Jul-23 03:51N 46°12' W 125°57'4612.3
2017-Jul-23 00:08N 46°12' W 127°02'1 4.4
2017-Jul-22 23:59N 46°12' W 127°03'  
Track history (hours):
 
Tides and Currents Weather Stations Pressure Air Temp Water Temp Dewpoint Dewpoint Depression Visibility Wind Speed Wind Dir Waves Ship Positions

Eastern Asia

Last reported at 2017-Jul-23 12:31 UTC. Time now 2017-Jul-23 12:42 UTC.
Position N 46°12' W 123°55'.

Length 175 m; draft 6.7 m.

Type: Cargo ship. MMSI: 355530000.

Date/timePositionNaut miles runAvg speedWind from/ knotsBaromVisibWave heightAir tempDewpointWater temp
2017-Jul-23 12:31N 46°12' W 123°55'4 8.2
2017-Jul-23 12:01N 46°15' W 123°60'4 7.4
2017-Jul-23 11:30N 46°15' W 124°05'510.3
2017-Jul-23 11:01N 46°13' W 124°12'4 7.6
2017-Jul-23 10:31N 46°12' W 124°17'1 1.6
2017-Jul-23 10:01N 46°12' W 124°18'1 2.7
2017-Jul-23 09:31N 46°12' W 124°20'4 7.3
2017-Jul-23 09:01N 46°12' W 124°25'511.0
2017-Jul-23 08:31N 46°12' W 124°33'611.8
2017-Jul-23 08:01N 46°12' W 124°42'612.1
2017-Jul-23 07:31N 46°12' W 124°50'612.2
2017-Jul-23 07:00N 46°12' W 124°59'612.7
2017-Jul-23 06:30N 46°12' W 125°08'612.5
2017-Jul-23 06:01N 46°12' W 125°17'612.5
2017-Jul-23 05:31N 46°12' W 125°26'612.6
2017-Jul-23 05:01N 46°12' W 125°36'612.6
2017-Jul-23 04:30N 46°12' W 125°45'812.5
2017-Jul-23 03:51N 46°12' W 125°57'4612.3
2017-Jul-23 00:08N 46°12' W 127°02'1 4.4
2017-Jul-22 23:59N 46°12' W 127°03'  

Dump ship's entire track history